Time;durP1;ratioP1;P1;durP2;ratioP2;P2;SDS_P1;SDS_P2;PMS_P1;PMS_P2;Temp;Humidity;BMP_temperature;BMP_pressure;BME280_temperature;BME280_humidity;BME280_pressure;Samples;Min_cycle;Max_cycle;Signal;HPM_P1;HPM_P2
2022/07/03 00:04:58;;;;;;;5.68;5.13;;;;;;;;;;10348200;28;20046;-77
2022/07/03 00:10:22;;;;;;;5.75;5.05;;;;;;;;;;10338242;28;20054;-77
2022/07/03 00:15:27;;;;;;;;;;;;;;;;;;10316744;28;20050;-77
2022/07/03 00:20:30;;;;;;;7.40;6.30;;;;;;;;;;10335763;28;19914;-77
2022/07/03 00:25:31;;;;;;;6.93;6.35;;;;;;;;;;10352431;28;20043;-78
2022/07/03 00:30:32;;;;;;;6.43;5.82;;;;;;;;;;10363310;28;20434;-77
2022/07/03 00:35:39;;;;;;;6.50;5.78;;;;;;;;;;10350207;28;20468;-79
2022/07/03 00:40:39;;;;;;;6.13;5.53;;;;;;;;;;10353835;28;20068;-79
2022/07/03 00:45:45;;;;;;;6.05;5.30;;;;;;;;;;10336598;28;20129;-78
2022/07/03 00:50:46;;;;;;;6.13;5.53;;;;;;;;;;10377718;28;20076;-78
2022/07/03 00:55:47;;;;;;;6.20;5.60;;;;;;;;;;10366624;28;20943;-78
2022/07/03 01:00:50;;;;;;;5.53;5.03;;;;;;;;;;10368387;28;20237;-78
2022/07/03 01:05:50;;;;;;;;;;;;;;;;;;10346733;28;20480;-78
2022/07/03 01:10:58;;;;;;;5.82;5.22;;;;;;;;;;10365547;28;19984;-78
2022/07/03 01:16:04;;;;;;;5.70;5.20;;;;;;;;;;10386899;28;20105;-79
2022/07/03 01:21:13;;;;;;;5.70;5.20;;;;;;;;;;10396073;28;20126;-79
2022/07/03 01:26:15;;;;;;;5.32;4.82;;;;;;;;;;10407776;28;20469;-78
2022/07/03 01:31:18;;;;;;;5.43;4.93;;;;;;;;;;10371819;28;20049;-78
2022/07/03 01:36:21;;;;;;;4.68;4.28;;;;;;;;;;10361005;28;20563;-78
2022/07/03 01:41:24;;;;;;;5.13;4.65;;;;;;;;;;10365017;28;20496;-79
2022/07/03 01:46:30;;;;;;;5.10;4.60;;;;;;;;;;10356316;28;20116;-79
2022/07/03 01:51:31;;;;;;;5.05;4.60;;;;;;;;;;10338065;28;20046;-80
2022/07/03 01:56:32;;;;;;;5.15;4.63;;;;;;;;;;10347063;28;20039;-79
2022/07/03 02:01:50;;;;;;;6.30;4.95;;;;;;;;;;10364656;28;20445;-78
2022/07/03 02:06:54;;;;;;;5.70;4.63;;;;;;;;;;10353524;28;20047;-78
2022/07/03 02:11:54;;;;;;;4.80;4.30;;;;;;;;;;10352636;28;20157;-79
2022/07/03 02:17:04;;;;;;;4.72;4.25;;;;;;;;;;10351935;28;20142;-79
2022/07/03 02:22:06;;;;;;;5.53;4.55;;;;;;;;;;10357108;28;20042;-79
2022/07/03 02:27:09;;;;;;;4.78;4.28;;;;;;;;;;10381920;28;20088;-78
2022/07/03 02:32:16;;;;;;;5.00;4.50;;;;;;;;;;10344388;28;20145;-80
2022/07/03 02:37:19;;;;;;;5.53;4.78;;;;;;;;;;10366144;28;20051;-79
2022/07/03 02:42:22;;;;;;;4.80;4.40;;;;;;;;;;10357442;28;20496;-77
2022/07/03 02:47:32;;;;;;;4.63;4.22;;;;;;;;;;10352371;28;20045;-78
2022/07/03 02:52:32;;;;;;;4.32;3.97;;;;;;;;;;10349692;28;20057;-77
2022/07/03 02:57:40;;;;;;;4.75;4.35;;;;;;;;;;10339044;28;20053;-77
2022/07/03 03:02:57;;;;;;;4.82;4.38;;;;;;;;;;10384187;28;20119;-78
2022/07/03 03:08:04;;;;;;;4.82;4.38;;;;;;;;;;10349377;28;20045;-79
2022/07/03 03:13:08;;;;;;;5.07;4.60;;;;;;;;;;10363488;28;20137;-78
2022/07/03 03:18:21;;;;;;;5.15;4.65;;;;;;;;;;10342758;28;20033;-77
2022/07/03 03:23:41;;;;;;;4.82;4.43;;;;;;;;;;10338520;28;20064;-79
2022/07/03 03:28:42;;;;;;;4.65;4.25;;;;;;;;;;10342881;28;20357;-79
2022/07/03 03:33:43;;;;;;;5.00;4.57;;;;;;;;;;10353794;28;20126;-76
2022/07/03 03:38:44;;;;;;;5.10;4.60;;;;;;;;;;10351632;28;20117;-77
2022/07/03 03:43:46;;;;;;;5.20;4.70;;;;;;;;;;10339871;28;20131;-77
2022/07/03 03:48:48;;;;;;;5.32;4.80;;;;;;;;;;10348880;28;20097;-77
2022/07/03 03:53:48;;;;;;;5.97;4.60;;;;;;;;;;10339345;28;20060;-78
2022/07/03 03:58:49;;;;;;;5.10;4.47;;;;;;;;;;10346708;28;20304;-78
2022/07/03 04:03:49;;;;;;;5.77;4.60;;;;;;;;;;10332846;28;20286;-77
2022/07/03 04:08:49;;;;;;;5.45;4.55;;;;;;;;;;10342127;28;20820;-77
2022/07/03 04:13:51;;;;;;;5.68;5.10;;;;;;;;;;10337045;28;20072;-76
2022/07/03 04:18:53;;;;;;;4.95;4.45;;;;;;;;;;10336768;28;20125;-77
2022/07/03 04:23:53;;;;;;;6.43;4.87;;;;;;;;;;10343680;28;20050;-77
2022/07/03 04:28:54;;;;;;;5.38;4.88;;;;;;;;;;10343147;28;20338;-77
2022/07/03 04:33:54;;;;;;;6.13;4.85;;;;;;;;;;10347361;28;20061;-77
2022/07/03 04:38:54;;;;;;;5.40;4.50;;;;;;;;;;10338657;28;20341;-78
2022/07/03 04:43:55;;;;;;;5.10;4.60;;;;;;;;;;10330907;28;20349;-80
2022/07/03 04:48:55;;;;;;;5.30;4.72;;;;;;;;;;10336729;28;20145;-80
2022/07/03 04:53:56;;;;;;;4.65;4.25;;;;;;;;;;10347307;28;20050;-78
2022/07/03 04:58:56;;;;;;;5.68;4.38;;;;;;;;;;10369304;28;20037;-77
2022/07/03 05:03:56;;;;;;;5.33;4.37;;;;;;;;;;10359979;28;20053;-75
2022/07/03 05:08:57;;;;;;;4.40;3.87;;;;;;;;;;10367987;28;20301;-75
2022/07/03 05:13:58;;;;;;;4.88;4.45;;;;;;;;;;10368450;28;20705;-77
2022/07/03 05:18:58;;;;;;;5.23;4.27;;;;;;;;;;10351225;28;20065;-77
2022/07/03 05:23:59;;;;;;;4.47;4.07;;;;;;;;;;10354853;28;20281;-78
2022/07/03 05:28:59;;;;;;;5.20;4.70;;;;;;;;;;10359546;28;20100;-77
2022/07/03 05:34:00;;;;;;;4.83;4.40;;;;;;;;;;10367525;28;20038;-76
2022/07/03 05:44:21;;;;;;;5.45;4.90;;;;;;;;;;10351403;28;20521;-76
2022/07/03 05:49:21;;;;;;;5.57;5.00;;;;;;;;;;10356403;28;20140;-73
2022/07/03 05:54:22;;;;;;;5.18;4.68;;;;;;;;;;10349718;28;20054;-72
2022/07/03 05:59:22;;;;;;;5.45;4.95;;;;;;;;;;10355442;28;20125;-72
2022/07/03 06:04:22;;;;;;;5.00;4.50;;;;;;;;;;10358100;28;20030;-76
2022/07/03 06:09:23;;;;;;;5.57;4.83;;;;;;;;;;10362324;28;20715;-77
2022/07/03 06:14:23;;;;;;;5.43;4.80;;;;;;;;;;10362944;28;20349;-76
2022/07/03 06:19:24;;;;;;;5.30;4.80;;;;;;;;;;10345346;28;20046;-77
2022/07/03 06:24:25;;;;;;;5.85;4.20;;;;;;;;;;10358671;28;20050;-76
2022/07/03 06:29:28;;;;;;;4.65;4.25;;;;;;;;;;10362803;28;20081;-79
2022/07/03 06:34:28;;;;;;;4.65;3.65;;;;;;;;;;10360017;28;20041;-78
2022/07/03 06:39:33;;;;;;;4.73;4.10;;;;;;;;;;10361463;28;20046;-79
2022/07/03 06:44:36;;;;;;;3.80;3.50;;;;;;;;;;10359457;28;20336;-78
2022/07/03 06:49:36;;;;;;;3.47;3.17;;;;;;;;;;10369928;28;20050;-79
2022/07/03 06:54:43;;;;;;;5.13;3.30;;;;;;;;;;10374867;28;20292;-78
2022/07/03 06:59:44;;;;;;;3.75;3.28;;;;;;;;;;10372097;28;20038;-78
2022/07/03 07:04:45;;;;;;;4.03;3.13;;;;;;;;;;10358321;28;20060;-78
2022/07/03 07:09:46;;;;;;;3.53;3.22;;;;;;;;;;10358271;28;20549;-77
2022/07/03 07:14:46;;;;;;;3.33;3.03;;;;;;;;;;10364787;28;20053;-77
2022/07/03 07:19:47;;;;;;;4.37;4.00;;;;;;;;;;10372104;28;20687;-77
2022/07/03 07:24:47;;;;;;;3.33;3.03;;;;;;;;;;10364257;28;20414;-75
2022/07/03 07:29:47;;;;;;;3.55;3.25;;;;;;;;;;10364946;28;20140;-78
2022/07/03 07:34:48;;;;;;;4.07;2.93;;;;;;;;;;10346092;28;20038;-77
2022/07/03 07:39:49;;;;;;;5.07;3.72;;;;;;;;;;10357956;28;20038;-77
2022/07/03 07:44:49;;;;;;;2.90;2.70;;;;;;;;;;10347895;28;20042;-77
2022/07/03 07:49:50;;;;;;;2.67;2.47;;;;;;;;;;10338641;28;20421;-75
2022/07/03 07:54:50;;;;;;;2.57;2.37;;;;;;;;;;10346304;28;20197;-75
2022/07/03 07:59:50;;;;;;;3.13;2.92;;;;;;;;;;10341389;28;20277;-76
2022/07/03 08:10:10;;;;;;;3.00;2.55;;;;;;;;;;10350742;28;20277;-74
2022/07/03 08:15:10;;;;;;;3.53;2.80;;;;;;;;;;10340896;28;20045;-76
2022/07/03 08:20:10;;;;;;;2.70;2.50;;;;;;;;;;10393754;28;20124;-78
2022/07/03 08:25:11;;;;;;;3.08;2.50;;;;;;;;;;10360636;28;20128;-77
2022/07/03 08:30:14;;;;;;;3.40;2.37;;;;;;;;;;10346753;28;20054;-77
2022/07/03 08:35:14;;;;;;;2.80;2.60;;;;;;;;;;10349983;28;20304;-78
2022/07/03 08:40:15;;;;;;;4.20;2.38;;;;;;;;;;10341178;28;20133;-76
2022/07/03 08:45:18;;;;;;;2.33;2.20;;;;;;;;;;10341196;28;20082;-77
2022/07/03 08:50:18;;;;;;;2.85;2.65;;;;;;;;;;10339298;28;20437;-76
2022/07/03 08:55:19;;;;;;;2.30;2.10;;;;;;;;;;10352799;28;20038;-77
2022/07/03 09:00:20;;;;;;;2.90;2.20;;;;;;;;;;10341084;28;20046;-76
2022/07/03 09:05:20;;;;;;;2.40;2.20;;;;;;;;;;10349730;28;20046;-78
2022/07/03 09:10:20;;;;;;;3.20;1.92;;;;;;;;;;10357306;28;20046;-76
2022/07/03 09:15:22;;;;;;;2.20;2.00;;;;;;;;;;10353624;28;20144;-77
2022/07/03 09:20:27;;;;;;;16.98;14.77;;;;;;;;;;10347513;28;20277;-77
2022/07/03 09:25:27;;;;;;;2.50;2.30;;;;;;;;;;10332998;28;20047;-77
2022/07/03 09:30:28;;;;;;;3.65;2.80;;;;;;;;;;10350968;28;20069;-76
2022/07/03 09:35:28;;;;;;;3.95;2.95;;;;;;;;;;10353772;28;20089;-78
2022/07/03 09:40:48;;;;;;;2.97;2.30;;;;;;;;;;10372135;28;20145;-76
2022/07/03 09:45:59;;;;;;;2.53;2.08;;;;;;;;;;10353460;28;20563;-76
2022/07/03 09:51:09;;;;;;;2.53;1.83;;;;;;;;;;10356320;28;20607;-75
2022/07/03 09:56:10;;;;;;;7.25;5.07;;;;;;;;;;10365551;28;20042;-77
2022/07/03 10:01:17;;;;;;;1.77;1.67;;;;;;;;;;10388342;28;20034;-78
2022/07/03 10:06:18;;;;;;;2.65;1.70;;;;;;;;;;10359839;28;20686;-77
2022/07/03 10:11:18;;;;;;;2.10;1.90;;;;;;;;;;10355905;28;20053;-77
2022/07/03 10:16:19;;;;;;;2.87;1.80;;;;;;;;;;10338398;28;20049;-77
2022/07/03 10:21:19;;;;;;;1.90;1.40;;;;;;;;;;10349863;28;20046;-77
2022/07/03 10:26:20;;;;;;;1.37;0.97;;;;;;;;;;10358554;28;20486;-76
2022/07/03 10:31:20;;;;;;;1.30;1.20;;;;;;;;;;10350853;28;20046;-76
2022/07/03 10:36:22;;;;;;;1.88;1.20;;;;;;;;;;10342608;28;20730;-76
2022/07/03 10:46:43;;;;;;;1.45;1.13;;;;;;;;;;10338430;28;20094;-77
2022/07/03 10:51:54;;;;;;;9.63;7.33;;;;;;;;;;10359148;28;20537;-78
2022/07/03 10:56:58;;;;;;;3.10;2.00;;;;;;;;;;10348502;28;20104;-78
2022/07/03 11:02:13;;;;;;;2.47;2.05;;;;;;;;;;10346111;28;20404;-75
2022/07/03 11:07:14;;;;;;;1.30;1.20;;;;;;;;;;10340144;28;20042;-75
2022/07/03 11:12:14;;;;;;;6.10;3.83;;;;;;;;;;10343707;28;20053;-76
2022/07/03 11:17:18;;;;;;;1.70;1.30;;;;;;;;;;10359803;28;20059;-74
2022/07/03 11:22:21;;;;;;;1.10;1.00;;;;;;;;;;10366893;28;20440;-76
2022/07/03 11:27:23;;;;;;;1.13;0.90;;;;;;;;;;10369477;28;20505;-75
2022/07/03 11:32:45;;;;;;;1.92;1.10;;;;;;;;;;10369978;28;20069;-76
2022/07/03 11:37:46;;;;;;;2.35;2.15;;;;;;;;;;10336994;28;20094;-75
2022/07/03 11:42:47;;;;;;;2.00;1.77;;;;;;;;;;10340764;28;20392;-75
2022/07/03 11:47:48;;;;;;;1.88;1.10;;;;;;;;;;10339586;28;20505;-75
2022/07/03 11:52:49;;;;;;;1.70;1.50;;;;;;;;;;10339039;28;20150;-74
2022/07/03 11:57:50;;;;;;;3.70;2.37;;;;;;;;;;10333980;28;20137;-73
2022/07/03 12:02:51;;;;;;;4.90;4.43;;;;;;;;;;10349896;28;20441;-78
2022/07/03 12:08:04;;;;;;;1.00;0.90;;;;;;;;;;10354271;28;20056;-77
2022/07/03 12:13:04;;;;;;;1.48;1.00;;;;;;;;;;10339815;28;20093;-77
2022/07/03 12:18:05;;;;;;;1.40;1.27;;;;;;;;;;10346540;28;20035;-78
2022/07/03 12:23:05;;;;;;;3.40;1.60;;;;;;;;;;10344101;28;20515;-75
2022/07/03 12:28:06;;;;;;;3.67;2.77;;;;;;;;;;10348925;28;20062;-77
2022/07/03 12:33:07;;;;;;;4.65;3.58;;;;;;;;;;10349104;28;20046;-77
2022/07/03 12:38:08;;;;;;;2.43;1.10;;;;;;;;;;10360162;28;20038;-78
2022/07/03 12:43:09;;;;;;;2.40;1.30;;;;;;;;;;10367424;28;20098;-81
2022/07/03 12:48:10;;;;;;;2.10;1.00;;;;;;;;;;10378125;28;20034;-81
2022/07/03 12:53:10;;;;;;;1.40;1.10;;;;;;;;;;10383631;28;20061;-81
2022/07/03 13:03:41;;;;;;;1.55;0.80;;;;;;;;;;10387240;28;20042;-79
2022/07/03 13:08:55;;;;;;;0.90;0.87;;;;;;;;;;10380287;28;20043;-80
2022/07/03 13:14:07;;;;;;;1.83;1.58;;;;;;;;;;10387209;28;20045;-83
2022/07/03 13:19:08;;;;;;;1.70;1.45;;;;;;;;;;10388968;28;20046;-82
2022/07/03 13:24:10;;;;;;;1.20;1.10;;;;;;;;;;10374220;28;20054;-82
2022/07/03 13:29:15;;;;;;;2.33;1.10;;;;;;;;;;10391012;28;20044;-81
2022/07/03 13:34:19;;;;;;;1.38;1.27;;;;;;;;;;10377513;28;20104;-82
2022/07/03 13:39:20;;;;;;;0.82;0.80;;;;;;;;;;10378338;28;20050;-77
2022/07/03 13:44:21;;;;;;;0.88;0.80;;;;;;;;;;10360712;28;20046;-78
2022/07/03 13:49:25;;;;;;;1.23;0.60;;;;;;;;;;10370118;28;20042;-78
2022/07/03 13:54:29;;;;;;;0.88;0.88;;;;;;;;;;10371761;28;20120;-79
2022/07/03 13:59:33;;;;;;;1.92;1.40;;;;;;;;;;10365351;28;20029;-77
2022/07/03 14:04:34;;;;;;;1.85;1.42;;;;;;;;;;10381901;28;20042;-78
2022/07/03 14:09:34;;;;;;;1.03;0.83;;;;;;;;;;10371578;28;20093;-78
2022/07/03 14:14:35;;;;;;;;;;;;;;;;;;10364764;28;20046;-77
2022/07/03 14:19:35;;;;;;;1.60;1.50;;;;;;;;;;10350130;28;20375;-77
2022/07/03 14:24:35;;;;;;;2.10;0.70;;;;;;;;;;10370625;28;20066;-76
2022/07/03 14:34:55;;;;;;;1.30;1.20;;;;;;;;;;10392240;28;19932;-76
2022/07/03 14:39:57;;;;;;;2.70;1.08;;;;;;;;;;10388289;28;20133;-77
2022/07/03 14:44:57;;;;;;;2.05;0.95;;;;;;;;;;10371941;28;20050;-79
2022/07/03 14:49:57;;;;;;;0.80;0.80;;;;;;;;;;10374220;28;20056;-79
2022/07/03 14:54:58;;;;;;;;;;;;;;;;;;10363298;28;20068;-79
2022/07/03 15:00:03;;;;;;;1.33;0.75;;;;;;;;;;10369641;28;19910;-79
2022/07/03 15:05:11;;;;;;;1.10;1.00;;;;;;;;;;10358883;28;20045;-79
2022/07/03 15:10:12;;;;;;;1.20;0.95;;;;;;;;;;10353080;28;20128;-78
2022/07/03 15:15:15;;;;;;;1.20;0.85;;;;;;;;;;10371086;28;20088;-78
2022/07/03 15:20:17;;;;;;;1.60;1.10;;;;;;;;;;10365166;28;20070;-78
2022/07/03 15:25:20;;;;;;;1.10;1.00;;;;;;;;;;10366198;28;20500;-79
2022/07/03 15:30:21;;;;;;;1.45;0.95;;;;;;;;;;10358426;28;20081;-78
2022/07/03 15:35:21;;;;;;;;;;;;;;;;;;10370803;28;20084;-78
2022/07/03 15:40:27;;;;;;;1.70;0.83;;;;;;;;;;10365476;28;19949;-77
2022/07/03 15:45:48;;;;;;;1.27;0.80;;;;;;;;;;10363293;28;20046;-78
2022/07/03 15:51:10;;;;;;;1.35;1.00;;;;;;;;;;10366347;28;20053;-77
2022/07/03 15:56:15;;;;;;;0.60;0.60;;;;;;;;;;10363526;28;20050;-78
2022/07/03 16:06:46;;;;;;;0.95;0.85;;;;;;;;;;10374254;28;20542;-77
2022/07/03 16:11:47;;;;;;;1.00;0.90;;;;;;;;;;10376761;28;20062;-80
2022/07/03 16:16:50;;;;;;;1.27;1.00;;;;;;;;;;10361076;28;20048;-77
2022/07/03 16:21:53;;;;;;;2.17;0.80;;;;;;;;;;10357789;28;20136;-78
2022/07/03 16:26:55;;;;;;;0.93;0.70;;;;;;;;;;10370751;28;20117;-81
2022/07/03 16:31:58;;;;;;;1.77;1.10;;;;;;;;;;10359264;28;20062;-80
2022/07/03 16:37:05;;;;;;;1.55;1.10;;;;;;;;;;10357560;28;20136;-81
2022/07/03 16:42:11;;;;;;;1.45;1.00;;;;;;;;;;10388140;28;20042;-80
2022/07/03 16:47:14;;;;;;;2.20;1.98;;;;;;;;;;10360945;28;20062;-82
2022/07/03 16:52:18;;;;;;;1.23;1.13;;;;;;;;;;10349037;28;20173;-79
2022/07/03 16:57:19;;;;;;;1.00;0.90;;;;;;;;;;10349068;28;20370;-80
2022/07/03 17:02:21;;;;;;;1.95;1.70;;;;;;;;;;10364384;28;20066;-81
2022/07/03 17:07:23;;;;;;;2.63;1.83;;;;;;;;;;10361328;28;20380;-80
2022/07/03 17:12:24;;;;;;;8.45;5.97;;;;;;;;;;10358875;28;20088;-80
2022/07/03 17:17:24;;;;;;;2.43;0.90;;;;;;;;;;10367088;28;20070;-80
2022/07/03 17:22:28;;;;;;;2.53;1.77;;;;;;;;;;10357629;28;20052;-80
2022/07/03 17:27:30;;;;;;;1.65;1.00;;;;;;;;;;10358593;28;20041;-79
2022/07/03 17:32:42;;;;;;;0.95;0.95;;;;;;;;;;10362284;28;20837;-82
2022/07/03 17:37:45;;;;;;;1.10;0.90;;;;;;;;;;10348283;28;20033;-83
2022/07/03 17:42:45;;;;;;;1.75;1.30;;;;;;;;;;10366118;28;20490;-82
2022/07/03 17:47:47;;;;;;;2.50;1.33;;;;;;;;;;10375425;28;20057;-80
2022/07/03 17:52:49;;;;;;;2.75;1.67;;;;;;;;;;10392129;28;20334;-80
2022/07/03 17:57:50;;;;;;;2.58;1.40;;;;;;;;;;10408551;28;20097;-79
2022/07/03 18:02:53;;;;;;;2.97;1.58;;;;;;;;;;10366352;28;20049;-80
2022/07/03 18:08:04;;;;;;;1.00;0.80;;;;;;;;;;10372275;28;20042;-79
2022/07/03 18:13:04;;;;;;;1.02;0.90;;;;;;;;;;10363586;28;20141;-79
2022/07/03 18:18:10;;;;;;;2.33;1.17;;;;;;;;;;10364837;28;20050;-78
2022/07/03 18:23:15;;;;;;;1.40;1.27;;;;;;;;;;10367954;28;20073;-78
2022/07/03 18:28:16;;;;;;;1.50;1.40;;;;;;;;;;10366491;28;20046;-79
2022/07/03 18:33:19;;;;;;;2.13;1.60;;;;;;;;;;10367077;28;20049;-77
2022/07/03 18:38:22;;;;;;;1.48;1.33;;;;;;;;;;10387440;28;20060;-80
2022/07/03 18:43:24;;;;;;;1.52;1.40;;;;;;;;;;10365003;28;20057;-79
2022/07/03 18:48:24;;;;;;;2.10;1.90;;;;;;;;;;10380995;28;20044;-80
2022/07/03 18:53:46;;;;;;;3.53;3.23;;;;;;;;;;10354333;28;20072;-81
2022/07/03 18:58:52;;;;;;;2.22;2.00;;;;;;;;;;10362272;28;20759;-79
2022/07/03 19:04:07;;;;;;;2.58;1.95;;;;;;;;;;10356309;28;20485;-82
2022/07/03 19:09:09;;;;;;;3.58;2.58;;;;;;;;;;10356840;28;20453;-80
2022/07/03 19:14:11;;;;;;;2.28;1.77;;;;;;;;;;10347867;28;20114;-79
2022/07/03 19:19:12;;;;;;;2.15;1.30;;;;;;;;;;10356041;28;20045;-80
2022/07/03 19:24:14;;;;;;;1.80;1.58;;;;;;;;;;10369478;28;20033;-79
2022/07/03 19:29:17;;;;;;;1.92;1.60;;;;;;;;;;10332725;28;20049;-80
2022/07/03 19:34:21;;;;;;;3.88;2.90;;;;;;;;;;10362993;28;20520;-78
2022/07/03 19:39:22;;;;;;;3.70;2.10;;;;;;;;;;10351846;28;20058;-78
2022/07/03 19:44:22;;;;;;;2.13;1.63;;;;;;;;;;10342445;28;20050;-78
2022/07/03 19:49:23;;;;;;;2.95;1.90;;;;;;;;;;10373310;28;20170;-78
2022/07/03 19:54:24;;;;;;;1.88;1.70;;;;;;;;;;10367001;28;20165;-76
2022/07/03 19:59:24;;;;;;;3.58;1.90;;;;;;;;;;10335462;28;20076;-76
2022/07/03 20:04:25;;;;;;;2.57;2.10;;;;;;;;;;10349620;28;20139;-76
2022/07/03 20:09:25;;;;;;;2.90;1.90;;;;;;;;;;10354885;28;20282;-77
2022/07/03 20:14:27;;;;;;;3.08;2.30;;;;;;;;;;10355491;28;20269;-77
2022/07/03 20:19:27;;;;;;;2.55;1.80;;;;;;;;;;10338499;28;20050;-76
2022/07/03 20:24:31;;;;;;;3.00;2.00;;;;;;;;;;10349580;28;20048;-77
2022/07/03 20:29:35;;;;;;;2.92;2.25;;;;;;;;;;10345768;28;20046;-78
2022/07/03 20:34:41;;;;;;;3.60;2.40;;;;;;;;;;10345416;28;20073;-77
2022/07/03 20:39:43;;;;;;;3.60;3.30;;;;;;;;;;10347384;28;20436;-76
2022/07/03 20:44:43;;;;;;;4.93;2.80;;;;;;;;;;10343434;28;20053;-79
2022/07/03 20:49:44;;;;;;;3.38;2.92;;;;;;;;;;10350228;28;20065;-79
2022/07/03 20:54:44;;;;;;;2.88;2.58;;;;;;;;;;10390904;28;20038;-80
2022/07/03 20:59:46;;;;;;;3.20;2.65;;;;;;;;;;10395125;28;20046;-78
2022/07/03 21:04:47;;;;;;;2.83;2.63;;;;;;;;;;10386249;28;20033;-77
2022/07/03 21:09:47;;;;;;;3.00;2.67;;;;;;;;;;10344703;28;20104;-77
2022/07/03 21:14:48;;;;;;;3.72;2.70;;;;;;;;;;10356062;28;20059;-79
2022/07/03 21:19:49;;;;;;;3.80;3.20;;;;;;;;;;10342295;28;20177;-78
2022/07/03 21:24:50;;;;;;;6.00;4.43;;;;;;;;;;10346373;28;20050;-76
2022/07/03 21:29:50;;;;;;;4.53;3.90;;;;;;;;;;10332726;28;20288;-77
2022/07/03 21:34:50;;;;;;;5.93;4.50;;;;;;;;;;10348983;28;20042;-76
2022/07/03 21:39:51;;;;;;;4.55;4.05;;;;;;;;;;10339768;28;20270;-78
2022/07/03 21:44:52;;;;;;;4.43;3.60;;;;;;;;;;10347077;28;20128;-77
2022/07/03 21:49:52;;;;;;;4.53;3.28;;;;;;;;;;10353975;28;20054;-77
2022/07/03 21:54:53;;;;;;;3.45;3.15;;;;;;;;;;10351269;28;20122;-77
2022/07/03 21:59:53;;;;;;;3.28;2.90;;;;;;;;;;10347799;28;20105;-79
2022/07/03 22:04:54;;;;;;;3.15;2.85;;;;;;;;;;10350559;28;20047;-78
2022/07/03 22:09:56;;;;;;;5.00;3.03;;;;;;;;;;10343835;28;20374;-77
2022/07/03 22:14:59;;;;;;;2.60;2.40;;;;;;;;;;10365518;28;20058;-77
2022/07/03 22:20:00;;;;;;;3.05;2.75;;;;;;;;;;10359544;28;20533;-78
2022/07/03 22:25:01;;;;;;;2.83;2.50;;;;;;;;;;10355142;28;20133;-76
2022/07/03 22:30:02;;;;;;;3.15;2.85;;;;;;;;;;10351246;28;20046;-78
2022/07/03 22:35:03;;;;;;;2.60;2.33;;;;;;;;;;10369946;28;20094;-79
2022/07/03 22:40:04;;;;;;;2.38;2.15;;;;;;;;;;10369824;28;20050;-77
2022/07/03 22:45:05;;;;;;;2.88;2.58;;;;;;;;;;10364167;28;20050;-79
2022/07/03 22:50:05;;;;;;;3.53;2.50;;;;;;;;;;10353093;28;20065;-77
2022/07/03 22:55:06;;;;;;;2.90;2.70;;;;;;;;;;10352433;28;20058;-78
2022/07/03 23:00:08;;;;;;;3.42;2.83;;;;;;;;;;10367893;28;20047;-76
2022/07/03 23:05:09;;;;;;;2.53;2.33;;;;;;;;;;10375588;28;20133;-76
2022/07/03 23:10:09;;;;;;;2.90;2.27;;;;;;;;;;10357929;28;20085;-76
2022/07/03 23:15:12;;;;;;;2.85;2.53;;;;;;;;;;10349745;28;20660;-76
2022/07/03 23:20:12;;;;;;;3.60;2.60;;;;;;;;;;10338389;28;20050;-76
2022/07/03 23:25:14;;;;;;;2.78;2.30;;;;;;;;;;10345844;28;20045;-77
2022/07/03 23:30:14;;;;;;;3.30;2.33;;;;;;;;;;10345720;28;20061;-78
2022/07/03 23:35:14;;;;;;;3.67;2.22;;;;;;;;;;10339262;28;20331;-76
2022/07/03 23:40:15;;;;;;;2.83;2.50;;;;;;;;;;10350775;28;20160;-76
2022/07/03 23:45:16;;;;;;;2.88;2.30;;;;;;;;;;10351842;28;20054;-76
2022/07/03 23:55:35;;;;;;;3.10;2.80;;;;;;;;;;10353094;28;20172;-77
